sensor_id;sensor_type;location;lat;lon;timestamp;P1;durP1;ratioP1;P2;durP2;ratioP2
22334;SDS011;11335;43.848;25.958;2023-09-12T00:02:39;2.58;;;2.17;;
22334;SDS011;11335;43.848;25.958;2023-09-12T00:05:25;3.83;;;2.20;;
22334;SDS011;11335;43.848;25.958;2023-09-12T00:08:11;2.60;;;2.00;;
22334;SDS011;11335;43.848;25.958;2023-09-12T00:13:48;3.25;;;2.30;;
22334;SDS011;11335;43.848;25.958;2023-09-12T00:16:34;3.55;;;2.03;;
22334;SDS011;11335;43.848;25.958;2023-09-12T00:19:20;3.28;;;2.10;;
22334;SDS011;11335;43.848;25.958;2023-09-12T00:22:06;2.60;;;2.10;;
22334;SDS011;11335;43.848;25.958;2023-09-12T00:24:51;5.82;;;2.30;;
22334;SDS011;11335;43.848;25.958;2023-09-12T00:27:37;3.40;;;2.13;;
22334;SDS011;11335;43.848;25.958;2023-09-12T00:30:23;3.58;;;2.03;;
22334;SDS011;11335;43.848;25.958;2023-09-12T00:33:09;5.65;;;2.53;;
22334;SDS011;11335;43.848;25.958;2023-09-12T00:35:54;4.57;;;2.35;;
22334;SDS011;11335;43.848;25.958;2023-09-12T00:38:40;4.80;;;2.30;;
22334;SDS011;11335;43.848;25.958;2023-09-12T00:41:26;2.20;;;2.00;;
22334;SDS011;11335;43.848;25.958;2023-09-12T00:44:11;2.97;;;2.00;;
22334;SDS011;11335;43.848;25.958;2023-09-12T00:46:57;17.23;;;3.05;;
22334;SDS011;11335;43.848;25.958;2023-09-12T00:49:43;6.40;;;2.70;;
22334;SDS011;11335;43.848;25.958;2023-09-12T00:52:30;3.30;;;2.25;;
22334;SDS011;11335;43.848;25.958;2023-09-12T00:55:18;4.78;;;2.30;;
22334;SDS011;11335;43.848;25.958;2023-09-12T00:58:04;2.30;;;1.90;;
22334;SDS011;11335;43.848;25.958;2023-09-12T01:00:50;4.40;;;2.28;;
22334;SDS011;11335;43.848;25.958;2023-09-12T01:03:36;2.47;;;2.20;;
22334;SDS011;11335;43.848;25.958;2023-09-12T01:06:22;5.95;;;2.33;;
22334;SDS011;11335;43.848;25.958;2023-09-12T01:09:11;3.65;;;2.20;;
22334;SDS011;11335;43.848;25.958;2023-09-12T01:11:58;4.18;;;2.20;;
22334;SDS011;11335;43.848;25.958;2023-09-12T01:14:46;4.43;;;2.00;;
22334;SDS011;11335;43.848;25.958;2023-09-12T01:17:31;2.53;;;2.03;;
22334;SDS011;11335;43.848;25.958;2023-09-12T01:20:19;4.65;;;2.35;;
22334;SDS011;11335;43.848;25.958;2023-09-12T01:26:28;5.18;;;2.33;;
22334;SDS011;11335;43.848;25.958;2023-09-12T01:29:20;2.95;;;2.10;;
22334;SDS011;11335;43.848;25.958;2023-09-12T01:32:07;4.72;;;2.25;;
22334;SDS011;11335;43.848;25.958;2023-09-12T01:34:55;3.78;;;2.10;;
22334;SDS011;11335;43.848;25.958;2023-09-12T01:37:40;7.00;;;2.35;;
22334;SDS011;11335;43.848;25.958;2023-09-12T01:40:42;3.08;;;2.10;;
22334;SDS011;11335;43.848;25.958;2023-09-12T01:43:38;3.47;;;2.35;;
22334;SDS011;11335;43.848;25.958;2023-09-12T01:46:25;2.60;;;1.98;;
22334;SDS011;11335;43.848;25.958;2023-09-12T01:49:12;3.78;;;2.20;;
22334;SDS011;11335;43.848;25.958;2023-09-12T01:52:00;4.03;;;2.25;;
22334;SDS011;11335;43.848;25.958;2023-09-12T01:54:47;7.28;;;2.40;;
22334;SDS011;11335;43.848;25.958;2023-09-12T01:57:38;2.80;;;2.22;;
22334;SDS011;11335;43.848;25.958;2023-09-12T02:00:24;3.72;;;2.28;;
22334;SDS011;11335;43.848;25.958;2023-09-12T02:03:10;3.10;;;2.22;;
22334;SDS011;11335;43.848;25.958;2023-09-12T02:05:56;4.10;;;2.35;;
22334;SDS011;11335;43.848;25.958;2023-09-12T02:08:42;3.35;;;2.20;;
22334;SDS011;11335;43.848;25.958;2023-09-12T02:11:27;4.60;;;2.10;;
22334;SDS011;11335;43.848;25.958;2023-09-12T02:14:13;4.10;;;2.17;;
22334;SDS011;11335;43.848;25.958;2023-09-12T02:16:59;3.67;;;2.17;;
22334;SDS011;11335;43.848;25.958;2023-09-12T02:19:46;3.58;;;2.30;;
22334;SDS011;11335;43.848;25.958;2023-09-12T02:22:33;3.67;;;2.10;;
22334;SDS011;11335;43.848;25.958;2023-09-12T02:25:19;3.15;;;2.05;;
22334;SDS011;11335;43.848;25.958;2023-09-12T02:28:05;2.45;;;1.98;;
22334;SDS011;11335;43.848;25.958;2023-09-12T02:30:51;2.63;;;2.20;;
22334;SDS011;11335;43.848;25.958;2023-09-12T02:33:37;5.32;;;2.40;;
22334;SDS011;11335;43.848;25.958;2023-09-12T02:36:23;5.28;;;2.20;;
22334;SDS011;11335;43.848;25.958;2023-09-12T02:39:09;4.10;;;2.60;;
22334;SDS011;11335;43.848;25.958;2023-09-12T02:41:54;3.50;;;2.50;;
22334;SDS011;11335;43.848;25.958;2023-09-12T02:44:40;3.25;;;2.70;;
22334;SDS011;11335;43.848;25.958;2023-09-12T02:47:26;4.05;;;2.40;;
22334;SDS011;11335;43.848;25.958;2023-09-12T02:50:12;6.97;;;2.72;;
22334;SDS011;11335;43.848;25.958;2023-09-12T02:52:57;7.85;;;2.60;;
22334;SDS011;11335;43.848;25.958;2023-09-12T02:55:43;4.25;;;2.28;;
22334;SDS011;11335;43.848;25.958;2023-09-12T02:58:29;4.60;;;2.55;;
22334;SDS011;11335;43.848;25.958;2023-09-12T03:01:18;5.07;;;2.25;;
22334;SDS011;11335;43.848;25.958;2023-09-12T03:04:05;5.53;;;2.63;;
22334;SDS011;11335;43.848;25.958;2023-09-12T03:06:51;7.75;;;2.53;;
22334;SDS011;11335;43.848;25.958;2023-09-12T03:09:37;5.40;;;2.47;;
22334;SDS011;11335;43.848;25.958;2023-09-12T03:12:23;5.60;;;2.63;;
22334;SDS011;11335;43.848;25.958;2023-09-12T03:15:09;3.38;;;2.50;;
22334;SDS011;11335;43.848;25.958;2023-09-12T03:17:55;2.95;;;2.30;;
22334;SDS011;11335;43.848;25.958;2023-09-12T03:20:41;3.42;;;2.60;;
22334;SDS011;11335;43.848;25.958;2023-09-12T03:23:27;4.03;;;2.60;;
22334;SDS011;11335;43.848;25.958;2023-09-12T03:26:14;2.47;;;2.22;;
22334;SDS011;11335;43.848;25.958;2023-09-12T03:28:59;4.53;;;2.30;;
22334;SDS011;11335;43.848;25.958;2023-09-12T03:31:45;5.60;;;2.42;;
22334;SDS011;11335;43.848;25.958;2023-09-12T03:34:31;3.30;;;2.47;;
22334;SDS011;11335;43.848;25.958;2023-09-12T03:37:16;4.50;;;2.63;;
22334;SDS011;11335;43.848;25.958;2023-09-12T03:40:02;5.43;;;2.70;;
22334;SDS011;11335;43.848;25.958;2023-09-12T03:42:50;7.25;;;2.42;;
22334;SDS011;11335;43.848;25.958;2023-09-12T03:45:35;3.45;;;2.38;;
22334;SDS011;11335;43.848;25.958;2023-09-12T03:48:21;5.60;;;2.78;;
22334;SDS011;11335;43.848;25.958;2023-09-12T03:51:07;3.22;;;2.50;;
22334;SDS011;11335;43.848;25.958;2023-09-12T03:53:52;3.75;;;2.60;;
22334;SDS011;11335;43.848;25.958;2023-09-12T03:56:38;5.63;;;2.42;;
22334;SDS011;11335;43.848;25.958;2023-09-12T03:59:24;4.85;;;2.58;;
22334;SDS011;11335;43.848;25.958;2023-09-12T04:02:10;6.75;;;2.40;;
22334;SDS011;11335;43.848;25.958;2023-09-12T04:04:55;9.60;;;2.78;;
22334;SDS011;11335;43.848;25.958;2023-09-12T04:07:44;4.90;;;2.38;;
22334;SDS011;11335;43.848;25.958;2023-09-12T04:10:30;9.93;;;2.90;;
22334;SDS011;11335;43.848;25.958;2023-09-12T04:13:17;7.00;;;2.88;;
22334;SDS011;11335;43.848;25.958;2023-09-12T04:16:03;8.20;;;2.58;;
22334;SDS011;11335;43.848;25.958;2023-09-12T04:18:49;7.10;;;3.67;;
22334;SDS011;11335;43.848;25.958;2023-09-12T04:21:35;14.43;;;3.90;;
22334;SDS011;11335;43.848;25.958;2023-09-12T04:24:20;12.43;;;3.60;;
22334;SDS011;11335;43.848;25.958;2023-09-12T04:27:06;9.45;;;3.47;;
22334;SDS011;11335;43.848;25.958;2023-09-12T04:29:52;11.60;;;3.97;;
22334;SDS011;11335;43.848;25.958;2023-09-12T04:32:38;12.63;;;3.00;;
22334;SDS011;11335;43.848;25.958;2023-09-12T04:35:23;10.38;;;3.55;;
22334;SDS011;11335;43.848;25.958;2023-09-12T04:38:10;10.05;;;3.10;;
22334;SDS011;11335;43.848;25.958;2023-09-12T04:40:56;12.00;;;3.33;;
22334;SDS011;11335;43.848;25.958;2023-09-12T04:43:43;21.67;;;3.38;;
22334;SDS011;11335;43.848;25.958;2023-09-12T04:46:30;10.25;;;4.38;;
22334;SDS011;11335;43.848;25.958;2023-09-12T04:49:15;8.27;;;3.40;;
22334;SDS011;11335;43.848;25.958;2023-09-12T04:52:01;11.38;;;3.70;;
22334;SDS011;11335;43.848;25.958;2023-09-12T04:54:47;22.77;;;4.07;;
22334;SDS011;11335;43.848;25.958;2023-09-12T04:57:33;9.50;;;3.40;;
22334;SDS011;11335;43.848;25.958;2023-09-12T05:00:19;7.28;;;2.83;;
22334;SDS011;11335;43.848;25.958;2023-09-12T05:03:04;7.13;;;3.33;;
22334;SDS011;11335;43.848;25.958;2023-09-12T05:05:50;11.73;;;3.78;;
22334;SDS011;11335;43.848;25.958;2023-09-12T05:08:36;9.20;;;3.42;;
22334;SDS011;11335;43.848;25.958;2023-09-12T05:11:22;5.10;;;3.00;;
22334;SDS011;11335;43.848;25.958;2023-09-12T05:14:11;7.05;;;4.22;;
22334;SDS011;11335;43.848;25.958;2023-09-12T05:16:57;4.80;;;2.88;;
22334;SDS011;11335;43.848;25.958;2023-09-12T05:19:43;5.75;;;3.10;;
22334;SDS011;11335;43.848;25.958;2023-09-12T05:22:28;9.65;;;3.58;;
22334;SDS011;11335;43.848;25.958;2023-09-12T05:25:14;7.78;;;2.80;;
22334;SDS011;11335;43.848;25.958;2023-09-12T05:28:00;4.80;;;2.70;;
22334;SDS011;11335;43.848;25.958;2023-09-12T05:30:46;8.07;;;2.58;;
22334;SDS011;11335;43.848;25.958;2023-09-12T05:33:31;9.13;;;2.80;;
22334;SDS011;11335;43.848;25.958;2023-09-12T05:36:17;5.93;;;2.70;;
22334;SDS011;11335;43.848;25.958;2023-09-12T05:39:03;6.20;;;2.30;;
22334;SDS011;11335;43.848;25.958;2023-09-12T05:41:49;4.32;;;2.35;;
22334;SDS011;11335;43.848;25.958;2023-09-12T05:44:34;5.80;;;2.40;;
22334;SDS011;11335;43.848;25.958;2023-09-12T05:47:20;4.10;;;2.28;;
22334;SDS011;11335;43.848;25.958;2023-09-12T05:50:06;3.00;;;2.28;;
22334;SDS011;11335;43.848;25.958;2023-09-12T05:52:52;7.70;;;2.60;;
22334;SDS011;11335;43.848;25.958;2023-09-12T05:55:38;6.47;;;2.17;;
22334;SDS011;11335;43.848;25.958;2023-09-12T05:58:24;5.03;;;2.53;;
22334;SDS011;11335;43.848;25.958;2023-09-12T06:01:09;4.05;;;2.40;;
22334;SDS011;11335;43.848;25.958;2023-09-12T06:03:56;6.88;;;2.50;;
22334;SDS011;11335;43.848;25.958;2023-09-12T06:06:42;4.95;;;2.30;;
22334;SDS011;11335;43.848;25.958;2023-09-12T06:09:27;8.82;;;2.60;;
22334;SDS011;11335;43.848;25.958;2023-09-12T06:12:13;11.02;;;2.95;;
22334;SDS011;11335;43.848;25.958;2023-09-12T06:14:59;5.93;;;3.33;;
22334;SDS011;11335;43.848;25.958;2023-09-12T06:17:45;10.27;;;2.85;;
22334;SDS011;11335;43.848;25.958;2023-09-12T06:20:30;7.80;;;2.80;;
22334;SDS011;11335;43.848;25.958;2023-09-12T06:23:16;12.38;;;3.10;;
22334;SDS011;11335;43.848;25.958;2023-09-12T06:26:02;9.02;;;2.90;;
22334;SDS011;11335;43.848;25.958;2023-09-12T06:28:48;15.75;;;2.80;;
22334;SDS011;11335;43.848;25.958;2023-09-12T06:31:34;7.97;;;2.70;;
22334;SDS011;11335;43.848;25.958;2023-09-12T06:34:20;6.80;;;2.95;;
22334;SDS011;11335;43.848;25.958;2023-09-12T06:37:06;12.18;;;3.50;;
22334;SDS011;11335;43.848;25.958;2023-09-12T06:39:52;8.55;;;3.60;;
22334;SDS011;11335;43.848;25.958;2023-09-12T06:42:38;17.55;;;3.47;;
22334;SDS011;11335;43.848;25.958;2023-09-12T06:45:24;7.78;;;3.88;;
22334;SDS011;11335;43.848;25.958;2023-09-12T06:48:09;12.00;;;4.45;;
22334;SDS011;11335;43.848;25.958;2023-09-12T06:50:55;8.45;;;3.03;;
22334;SDS011;11335;43.848;25.958;2023-09-12T06:53:41;11.00;;;2.97;;
22334;SDS011;11335;43.848;25.958;2023-09-12T06:56:27;6.70;;;3.42;;
22334;SDS011;11335;43.848;25.958;2023-09-12T06:59:12;8.73;;;3.30;;
22334;SDS011;11335;43.848;25.958;2023-09-12T07:01:58;10.40;;;2.95;;
22334;SDS011;11335;43.848;25.958;2023-09-12T07:04:44;7.00;;;2.83;;
22334;SDS011;11335;43.848;25.958;2023-09-12T07:07:30;8.52;;;2.72;;
22334;SDS011;11335;43.848;25.958;2023-09-12T07:10:16;4.55;;;2.72;;
22334;SDS011;11335;43.848;25.958;2023-09-12T07:13:02;13.32;;;3.00;;
22334;SDS011;11335;43.848;25.958;2023-09-12T07:15:48;6.70;;;2.33;;
22334;SDS011;11335;43.848;25.958;2023-09-12T07:18:34;4.20;;;2.38;;
22334;SDS011;11335;43.848;25.958;2023-09-12T07:21:20;4.10;;;2.60;;
22334;SDS011;11335;43.848;25.958;2023-09-12T07:24:06;5.47;;;2.03;;
22334;SDS011;11335;43.848;25.958;2023-09-12T07:26:52;4.82;;;2.83;;
22334;SDS011;11335;43.848;25.958;2023-09-12T07:29:38;5.95;;;2.72;;
22334;SDS011;11335;43.848;25.958;2023-09-12T07:32:23;7.45;;;2.70;;
22334;SDS011;11335;43.848;25.958;2023-09-12T07:35:09;4.43;;;2.70;;
22334;SDS011;11335;43.848;25.958;2023-09-12T07:37:55;2.60;;;2.08;;
22334;SDS011;11335;43.848;25.958;2023-09-12T07:40:41;4.80;;;2.63;;
22334;SDS011;11335;43.848;25.958;2023-09-12T07:43:27;8.82;;;2.50;;
22334;SDS011;11335;43.848;25.958;2023-09-12T07:46:13;6.03;;;2.53;;
22334;SDS011;11335;43.848;25.958;2023-09-12T07:48:59;6.30;;;2.40;;
22334;SDS011;11335;43.848;25.958;2023-09-12T07:51:45;5.45;;;2.67;;
22334;SDS011;11335;43.848;25.958;2023-09-12T07:54:30;6.25;;;3.40;;
22334;SDS011;11335;43.848;25.958;2023-09-12T07:57:16;4.70;;;2.80;;
22334;SDS011;11335;43.848;25.958;2023-09-12T08:00:03;6.10;;;3.38;;
22334;SDS011;11335;43.848;25.958;2023-09-12T08:02:55;5.28;;;2.80;;
22334;SDS011;11335;43.848;25.958;2023-09-12T08:05:41;8.48;;;2.50;;
22334;SDS011;11335;43.848;25.958;2023-09-12T08:08:27;8.32;;;3.53;;
22334;SDS011;11335;43.848;25.958;2023-09-12T08:11:13;5.57;;;2.67;;
22334;SDS011;11335;43.848;25.958;2023-09-12T08:13:58;8.57;;;2.53;;
22334;SDS011;11335;43.848;25.958;2023-09-12T08:16:44;3.50;;;2.22;;
22334;SDS011;11335;43.848;25.958;2023-09-12T08:19:30;5.70;;;2.55;;
22334;SDS011;11335;43.848;25.958;2023-09-12T08:22:16;3.88;;;2.28;;
22334;SDS011;11335;43.848;25.958;2023-09-12T08:25:02;6.05;;;2.20;;
22334;SDS011;11335;43.848;25.958;2023-09-12T08:27:48;10.73;;;2.53;;
22334;SDS011;11335;43.848;25.958;2023-09-12T08:30:33;4.93;;;2.40;;
22334;SDS011;11335;43.848;25.958;2023-09-12T08:33:19;6.75;;;2.53;;
22334;SDS011;11335;43.848;25.958;2023-09-12T08:36:05;5.65;;;2.35;;
22334;SDS011;11335;43.848;25.958;2023-09-12T08:38:51;4.95;;;2.22;;
22334;SDS011;11335;43.848;25.958;2023-09-12T08:41:36;13.15;;;2.85;;
22334;SDS011;11335;43.848;25.958;2023-09-12T08:44:22;9.80;;;2.90;;
22334;SDS011;11335;43.848;25.958;2023-09-12T08:47:08;7.05;;;2.45;;
22334;SDS011;11335;43.848;25.958;2023-09-12T08:49:55;6.35;;;2.55;;
22334;SDS011;11335;43.848;25.958;2023-09-12T08:52:43;9.15;;;2.90;;
22334;SDS011;11335;43.848;25.958;2023-09-12T08:55:31;5.53;;;2.88;;
22334;SDS011;11335;43.848;25.958;2023-09-12T08:58:18;8.40;;;3.33;;
22334;SDS011;11335;43.848;25.958;2023-09-12T09:01:06;6.53;;;2.88;;
22334;SDS011;11335;43.848;25.958;2023-09-12T09:03:55;5.25;;;3.28;;
22334;SDS011;11335;43.848;25.958;2023-09-12T09:06:42;3.72;;;2.78;;
22334;SDS011;11335;43.848;25.958;2023-09-12T09:09:28;6.57;;;2.60;;
22334;SDS011;11335;43.848;25.958;2023-09-12T09:12:17;5.25;;;2.55;;
22334;SDS011;11335;43.848;25.958;2023-09-12T09:15:19;5.10;;;2.47;;
22334;SDS011;11335;43.848;25.958;2023-09-12T09:18:12;7.13;;;2.63;;
22334;SDS011;11335;43.848;25.958;2023-09-12T09:20:58;5.85;;;2.70;;
22334;SDS011;11335;43.848;25.958;2023-09-12T09:23:44;7.75;;;2.70;;
22334;SDS011;11335;43.848;25.958;2023-09-12T09:26:50;5.78;;;2.50;;
22334;SDS011;11335;43.848;25.958;2023-09-12T09:29:47;7.78;;;2.70;;
22334;SDS011;11335;43.848;25.958;2023-09-12T09:32:33;4.97;;;2.75;;
22334;SDS011;11335;43.848;25.958;2023-09-12T09:35:19;8.38;;;2.88;;
22334;SDS011;11335;43.848;25.958;2023-09-12T09:38:05;11.98;;;3.38;;
22334;SDS011;11335;43.848;25.958;2023-09-12T09:40:51;7.93;;;2.60;;
22334;SDS011;11335;43.848;25.958;2023-09-12T09:43:37;6.68;;;2.35;;
22334;SDS011;11335;43.848;25.958;2023-09-12T09:46:23;10.57;;;3.20;;
22334;SDS011;11335;43.848;25.958;2023-09-12T09:49:15;10.10;;;4.88;;
22334;SDS011;11335;43.848;25.958;2023-09-12T09:52:04;10.02;;;3.50;;
22334;SDS011;11335;43.848;25.958;2023-09-12T09:54:50;6.25;;;3.15;;
22334;SDS011;11335;43.848;25.958;2023-09-12T09:57:36;12.32;;;3.58;;
22334;SDS011;11335;43.848;25.958;2023-09-12T10:00:23;17.08;;;3.40;;
22334;SDS011;11335;43.848;25.958;2023-09-12T10:03:10;12.63;;;3.33;;
22334;SDS011;11335;43.848;25.958;2023-09-12T10:05:58;7.50;;;3.50;;
22334;SDS011;11335;43.848;25.958;2023-09-12T10:08:50;10.20;;;3.17;;
22334;SDS011;11335;43.848;25.958;2023-09-12T10:11:38;8.88;;;3.10;;
22334;SDS011;11335;43.848;25.958;2023-09-12T10:14:26;7.78;;;3.20;;
22334;SDS011;11335;43.848;25.958;2023-09-12T10:17:13;9.02;;;3.33;;
22334;SDS011;11335;43.848;25.958;2023-09-12T10:20:03;6.80;;;3.00;;
22334;SDS011;11335;43.848;25.958;2023-09-12T10:25:49;6.25;;;3.20;;
22334;SDS011;11335;43.848;25.958;2023-09-12T10:28:37;11.38;;;3.60;;
22334;SDS011;11335;43.848;25.958;2023-09-12T10:31:25;6.63;;;4.07;;
22334;SDS011;11335;43.848;25.958;2023-09-12T10:34:13;7.38;;;3.47;;
22334;SDS011;11335;43.848;25.958;2023-09-12T10:37:00;10.20;;;3.20;;
22334;SDS011;11335;43.848;25.958;2023-09-12T10:39:50;8.77;;;3.60;;
22334;SDS011;11335;43.848;25.958;2023-09-12T10:42:39;10.68;;;4.28;;
22334;SDS011;11335;43.848;25.958;2023-09-12T10:45:25;10.80;;;4.00;;
22334;SDS011;11335;43.848;25.958;2023-09-12T10:48:11;7.10;;;3.40;;
22334;SDS011;11335;43.848;25.958;2023-09-12T10:50:58;8.38;;;3.22;;
22334;SDS011;11335;43.848;25.958;2023-09-12T10:53:46;10.20;;;3.30;;
22334;SDS011;11335;43.848;25.958;2023-09-12T10:56:35;13.13;;;3.20;;
22334;SDS011;11335;43.848;25.958;2023-09-12T10:59:21;12.25;;;3.25;;
22334;SDS011;11335;43.848;25.958;2023-09-12T11:02:29;10.02;;;3.28;;
22334;SDS011;11335;43.848;25.958;2023-09-12T11:08:14;5.18;;;3.20;;
22334;SDS011;11335;43.848;25.958;2023-09-12T11:11:19;8.38;;;3.53;;
22334;SDS011;11335;43.848;25.958;2023-09-12T11:14:08;7.13;;;3.10;;
22334;SDS011;11335;43.848;25.958;2023-09-12T11:20:06;5.38;;;3.53;;
22334;SDS011;11335;43.848;25.958;2023-09-12T11:22:55;5.70;;;3.50;;
22334;SDS011;11335;43.848;25.958;2023-09-12T11:26:03;9.10;;;3.88;;
22334;SDS011;11335;43.848;25.958;2023-09-12T11:28:52;7.60;;;3.70;;
22334;SDS011;11335;43.848;25.958;2023-09-12T11:31:40;7.53;;;4.03;;
22334;SDS011;11335;43.848;25.958;2023-09-12T11:34:27;8.15;;;3.78;;
22334;SDS011;11335;43.848;25.958;2023-09-12T11:37:24;7.53;;;3.97;;
22334;SDS011;11335;43.848;25.958;2023-09-12T11:42:57;9.85;;;3.70;;
22334;SDS011;11335;43.848;25.958;2023-09-12T11:45:43;13.05;;;3.85;;
22334;SDS011;11335;43.848;25.958;2023-09-12T11:48:30;9.15;;;4.50;;
22334;SDS011;11335;43.848;25.958;2023-09-12T11:51:16;6.20;;;3.50;;
22334;SDS011;11335;43.848;25.958;2023-09-12T11:54:02;14.65;;;5.47;;
22334;SDS011;11335;43.848;25.958;2023-09-12T11:56:49;7.88;;;3.88;;
22334;SDS011;11335;43.848;25.958;2023-09-12T11:59:43;10.32;;;3.90;;
22334;SDS011;11335;43.848;25.958;2023-09-12T12:02:37;9.60;;;4.68;;
22334;SDS011;11335;43.848;25.958;2023-09-12T12:05:22;7.63;;;4.43;;
22334;SDS011;11335;43.848;25.958;2023-09-12T12:08:09;6.68;;;3.83;;
22334;SDS011;11335;43.848;25.958;2023-09-12T12:10:56;15.00;;;4.20;;
22334;SDS011;11335;43.848;25.958;2023-09-12T12:13:44;10.68;;;4.20;;
22334;SDS011;11335;43.848;25.958;2023-09-12T12:16:29;9.43;;;4.10;;
22334;SDS011;11335;43.848;25.958;2023-09-12T12:19:15;9.00;;;4.05;;
22334;SDS011;11335;43.848;25.958;2023-09-12T12:22:01;8.38;;;4.03;;
22334;SDS011;11335;43.848;25.958;2023-09-12T12:24:49;16.10;;;4.75;;
22334;SDS011;11335;43.848;25.958;2023-09-12T12:27:37;15.45;;;4.35;;
22334;SDS011;11335;43.848;25.958;2023-09-12T12:30:24;6.45;;;4.00;;
22334;SDS011;11335;43.848;25.958;2023-09-12T12:33:10;12.00;;;4.40;;
22334;SDS011;11335;43.848;25.958;2023-09-12T12:36:02;9.98;;;4.43;;
22334;SDS011;11335;43.848;25.958;2023-09-12T12:38:49;16.55;;;4.40;;
22334;SDS011;11335;43.848;25.958;2023-09-12T12:41:35;7.57;;;3.78;;
22334;SDS011;11335;43.848;25.958;2023-09-12T12:44:21;8.10;;;3.90;;
22334;SDS011;11335;43.848;25.958;2023-09-12T12:47:08;14.13;;;4.00;;
22334;SDS011;11335;43.848;25.958;2023-09-12T12:49:55;9.38;;;4.43;;
22334;SDS011;11335;43.848;25.958;2023-09-12T12:52:41;7.78;;;4.55;;
22334;SDS011;11335;43.848;25.958;2023-09-12T12:55:27;7.53;;;4.25;;
22334;SDS011;11335;43.848;25.958;2023-09-12T12:58:13;8.52;;;4.47;;
22334;SDS011;11335;43.848;25.958;2023-09-12T13:00:58;6.55;;;4.15;;
22334;SDS011;11335;43.848;25.958;2023-09-12T13:03:44;7.95;;;4.18;;
22334;SDS011;11335;43.848;25.958;2023-09-12T13:06:30;13.60;;;4.70;;
22334;SDS011;11335;43.848;25.958;2023-09-12T13:09:20;6.45;;;4.13;;
22334;SDS011;11335;43.848;25.958;2023-09-12T13:12:06;8.02;;;4.13;;
22334;SDS011;11335;43.848;25.958;2023-09-12T13:14:53;12.90;;;4.70;;
22334;SDS011;11335;43.848;25.958;2023-09-12T13:17:40;13.38;;;4.78;;
22334;SDS011;11335;43.848;25.958;2023-09-12T13:20:26;6.47;;;4.10;;
22334;SDS011;11335;43.848;25.958;2023-09-12T13:23:12;10.85;;;4.30;;
22334;SDS011;11335;43.848;25.958;2023-09-12T13:25:58;11.77;;;4.50;;
22334;SDS011;11335;43.848;25.958;2023-09-12T13:28:44;11.25;;;4.40;;
22334;SDS011;11335;43.848;25.958;2023-09-12T13:31:30;8.88;;;4.50;;
22334;SDS011;11335;43.848;25.958;2023-09-12T13:34:17;6.05;;;4.10;;
22334;SDS011;11335;43.848;25.958;2023-09-12T13:37:03;10.05;;;4.63;;
22334;SDS011;11335;43.848;25.958;2023-09-12T13:39:49;7.28;;;3.95;;
22334;SDS011;11335;43.848;25.958;2023-09-12T13:42:35;12.02;;;4.50;;
22334;SDS011;11335;43.848;25.958;2023-09-12T13:45:21;12.23;;;4.40;;
22334;SDS011;11335;43.848;25.958;2023-09-12T13:48:06;7.90;;;4.57;;
22334;SDS011;11335;43.848;25.958;2023-09-12T13:50:53;12.30;;;5.15;;
22334;SDS011;11335;43.848;25.958;2023-09-12T13:53:39;7.65;;;4.53;;
22334;SDS011;11335;43.848;25.958;2023-09-12T13:56:25;7.47;;;4.25;;
22334;SDS011;11335;43.848;25.958;2023-09-12T13:59:11;13.63;;;5.28;;
22334;SDS011;11335;43.848;25.958;2023-09-12T14:01:56;9.27;;;4.47;;
22334;SDS011;11335;43.848;25.958;2023-09-12T14:04:42;9.10;;;4.32;;
22334;SDS011;11335;43.848;25.958;2023-09-12T14:07:28;12.38;;;4.57;;
22334;SDS011;11335;43.848;25.958;2023-09-12T14:10:14;13.32;;;4.50;;
22334;SDS011;11335;43.848;25.958;2023-09-12T14:13:00;18.50;;;5.00;;
22334;SDS011;11335;43.848;25.958;2023-09-12T14:15:46;8.98;;;4.22;;
22334;SDS011;11335;43.848;25.958;2023-09-12T14:18:32;16.15;;;5.03;;
22334;SDS011;11335;43.848;25.958;2023-09-12T14:21:18;8.75;;;4.47;;
22334;SDS011;11335;43.848;25.958;2023-09-12T14:24:04;11.98;;;4.85;;
22334;SDS011;11335;43.848;25.958;2023-09-12T14:26:51;10.80;;;4.93;;
22334;SDS011;11335;43.848;25.958;2023-09-12T14:29:36;11.18;;;4.65;;
22334;SDS011;11335;43.848;25.958;2023-09-12T14:32:22;10.27;;;4.78;;
22334;SDS011;11335;43.848;25.958;2023-09-12T14:35:08;11.07;;;4.60;;
22334;SDS011;11335;43.848;25.958;2023-09-12T14:37:54;9.43;;;4.68;;
22334;SDS011;11335;43.848;25.958;2023-09-12T14:40:40;9.45;;;4.95;;
22334;SDS011;11335;43.848;25.958;2023-09-12T14:43:25;20.45;;;5.75;;
22334;SDS011;11335;43.848;25.958;2023-09-12T14:46:13;13.75;;;5.43;;
22334;SDS011;11335;43.848;25.958;2023-09-12T14:48:59;12.23;;;5.40;;
22334;SDS011;11335;43.848;25.958;2023-09-12T14:51:45;21.15;;;6.50;;
22334;SDS011;11335;43.848;25.958;2023-09-12T14:54:30;12.00;;;4.88;;
22334;SDS011;11335;43.848;25.958;2023-09-12T14:57:16;20.67;;;5.35;;
22334;SDS011;11335;43.848;25.958;2023-09-12T15:00:02;16.27;;;4.78;;
22334;SDS011;11335;43.848;25.958;2023-09-12T15:02:48;29.15;;;5.63;;
22334;SDS011;11335;43.848;25.958;2023-09-12T15:05:34;8.60;;;4.47;;
22334;SDS011;11335;43.848;25.958;2023-09-12T15:08:20;16.25;;;4.97;;
22334;SDS011;11335;43.848;25.958;2023-09-12T15:11:05;15.80;;;5.00;;
22334;SDS011;11335;43.848;25.958;2023-09-12T15:13:51;8.82;;;4.32;;
22334;SDS011;11335;43.848;25.958;2023-09-12T15:16:37;16.70;;;4.88;;
22334;SDS011;11335;43.848;25.958;2023-09-12T15:19:23;11.07;;;4.85;;
22334;SDS011;11335;43.848;25.958;2023-09-12T15:22:09;13.30;;;4.68;;
22334;SDS011;11335;43.848;25.958;2023-09-12T15:24:55;11.18;;;4.75;;
22334;SDS011;11335;43.848;25.958;2023-09-12T15:27:40;10.63;;;4.88;;
22334;SDS011;11335;43.848;25.958;2023-09-12T15:30:26;14.18;;;5.00;;
22334;SDS011;11335;43.848;25.958;2023-09-12T15:33:12;13.60;;;5.20;;
22334;SDS011;11335;43.848;25.958;2023-09-12T15:35:58;15.73;;;5.30;;
22334;SDS011;11335;43.848;25.958;2023-09-12T15:38:44;8.55;;;4.65;;
22334;SDS011;11335;43.848;25.958;2023-09-12T15:41:29;9.68;;;5.18;;
22334;SDS011;11335;43.848;25.958;2023-09-12T15:44:15;14.52;;;5.53;;
22334;SDS011;11335;43.848;25.958;2023-09-12T15:47:01;15.65;;;5.80;;
22334;SDS011;11335;43.848;25.958;2023-09-12T15:49:47;14.70;;;5.53;;
22334;SDS011;11335;43.848;25.958;2023-09-12T15:52:32;25.17;;;5.90;;
22334;SDS011;11335;43.848;25.958;2023-09-12T15:55:22;22.38;;;6.15;;
22334;SDS011;11335;43.848;25.958;2023-09-12T15:58:10;18.52;;;5.32;;
22334;SDS011;11335;43.848;25.958;2023-09-12T16:00:55;19.25;;;6.00;;
22334;SDS011;11335;43.848;25.958;2023-09-12T16:03:43;18.92;;;6.05;;
22334;SDS011;11335;43.848;25.958;2023-09-12T16:06:28;12.90;;;5.20;;
22334;SDS011;11335;43.848;25.958;2023-09-12T16:09:14;15.70;;;6.22;;
22334;SDS011;11335;43.848;25.958;2023-09-12T16:12:00;13.43;;;5.00;;
22334;SDS011;11335;43.848;25.958;2023-09-12T16:14:46;14.57;;;4.95;;
22334;SDS011;11335;43.848;25.958;2023-09-12T16:17:32;15.45;;;5.53;;
22334;SDS011;11335;43.848;25.958;2023-09-12T16:20:18;11.15;;;5.03;;
22334;SDS011;11335;43.848;25.958;2023-09-12T16:23:03;11.43;;;5.10;;
22334;SDS011;11335;43.848;25.958;2023-09-12T16:25:49;17.20;;;5.40;;
22334;SDS011;11335;43.848;25.958;2023-09-12T16:28:36;15.57;;;5.50;;
22334;SDS011;11335;43.848;25.958;2023-09-12T16:31:22;20.88;;;6.45;;
22334;SDS011;11335;43.848;25.958;2023-09-12T16:34:08;21.75;;;6.30;;
22334;SDS011;11335;43.848;25.958;2023-09-12T16:36:53;19.65;;;6.75;;
22334;SDS011;11335;43.848;25.958;2023-09-12T16:39:39;17.33;;;6.20;;
22334;SDS011;11335;43.848;25.958;2023-09-12T16:42:27;22.30;;;6.50;;
22334;SDS011;11335;43.848;25.958;2023-09-12T16:45:15;17.42;;;6.72;;